createdAt,value
2018-12-31T00:01:05.108Z,7.44
2018-12-31T00:03:33.239Z,7.43
2018-12-31T00:06:01.279Z,7.41
2018-12-31T00:08:29.353Z,7.41
2018-12-31T00:10:57.368Z,7.39
2018-12-31T00:13:25.366Z,7.38
2018-12-31T00:15:53.728Z,7.36
2018-12-31T00:18:21.739Z,7.36
2018-12-31T00:20:49.753Z,7.37
2018-12-31T00:23:18.051Z,7.41
2018-12-31T00:25:46.042Z,7.44
2018-12-31T00:28:14.067Z,7.47
2018-12-31T00:30:42.478Z,7.50
2018-12-31T00:33:10.502Z,7.51
2018-12-31T00:35:38.515Z,7.53
2018-12-31T00:38:06.860Z,7.54
2018-12-31T00:40:35.170Z,7.54
2018-12-31T00:43:03.554Z,7.51
2018-12-31T00:45:32.639Z,7.48
2018-12-31T00:48:00.945Z,7.47
2018-12-31T00:50:29.006Z,7.45
2018-12-31T00:52:56.994Z,7.43
2018-12-31T00:55:25.148Z,7.41
2018-12-31T00:57:53.521Z,7.38
2018-12-31T01:00:21.514Z,7.36
2018-12-31T01:02:49.766Z,7.35
2018-12-31T01:05:18.105Z,7.36
2018-12-31T01:07:46.624Z,7.36
2018-12-31T01:10:14.599Z,7.37
2018-12-31T01:12:42.646Z,7.38
2018-12-31T01:15:10.615Z,7.40
2018-12-31T01:17:38.754Z,7.38
2018-12-31T01:20:07.107Z,7.38
2018-12-31T01:22:35.281Z,7.38
2018-12-31T01:25:03.553Z,7.37
2018-12-31T01:27:32.417Z,7.37
2018-12-31T01:30:00.823Z,7.38
2018-12-31T01:32:29.218Z,7.38
2018-12-31T01:34:59.069Z,7.41
2018-12-31T01:37:27.502Z,7.43
2018-12-31T01:39:55.383Z,7.46
2018-12-31T01:42:23.404Z,7.47
2018-12-31T01:44:51.926Z,7.48
2018-12-31T01:47:20.242Z,7.46
2018-12-31T01:49:48.255Z,7.46
2018-12-31T01:52:16.510Z,7.41
2018-12-31T01:54:44.566Z,7.37
2018-12-31T01:57:12.943Z,7.35
2018-12-31T01:59:40.984Z,7.33
2018-12-31T02:02:08.989Z,7.31
2018-12-31T02:04:36.995Z,7.30
2018-12-31T02:07:05.663Z,7.30
2018-12-31T02:09:34.044Z,7.30
2018-12-31T02:12:02.029Z,7.29
2018-12-31T02:14:30.051Z,7.29
2018-12-31T02:16:58.519Z,7.28
2018-12-31T02:19:26.555Z,7.27
2018-12-31T02:21:54.709Z,7.26
2018-12-31T02:24:24.178Z,7.25
2018-12-31T02:26:52.158Z,7.27
2018-12-31T02:29:20.311Z,7.29
2018-12-31T02:31:48.425Z,7.34
2018-12-31T02:34:16.836Z,7.36
2018-12-31T02:36:44.972Z,7.38
2018-12-31T02:39:13.003Z,7.43
2018-12-31T02:41:41.054Z,7.44
2018-12-31T02:44:09.142Z,7.47
2018-12-31T02:46:37.167Z,7.49
2018-12-31T02:49:05.595Z,7.48
2018-12-31T02:51:33.604Z,7.46
2018-12-31T02:54:01.648Z,7.48
2018-12-31T02:56:30.072Z,7.47
2018-12-31T02:58:58.282Z,7.48
2018-12-31T03:01:26.276Z,7.50
2018-12-31T03:03:54.665Z,7.51
2018-12-31T03:06:22.665Z,7.53
2018-12-31T03:08:50.720Z,7.54
2018-12-31T03:11:18.717Z,7.54
2018-12-31T03:13:46.751Z,7.57
2018-12-31T03:16:14.764Z,7.55
2018-12-31T03:18:42.796Z,7.55
2018-12-31T03:21:11.231Z,7.54
2018-12-31T03:23:57.948Z,7.54
2018-12-31T03:26:25.974Z,7.55
2018-12-31T03:28:54.330Z,7.54
2018-12-31T03:31:22.380Z,7.54
2018-12-31T03:33:50.810Z,7.55
2018-12-31T03:36:18.921Z,7.55
2018-12-31T03:38:47.228Z,7.53
2018-12-31T03:41:15.559Z,7.53
2018-12-31T03:43:43.545Z,7.53
2018-12-31T03:46:11.579Z,7.50
2018-12-31T03:48:39.575Z,7.53
2018-12-31T03:51:08.010Z,7.55
2018-12-31T03:53:36.025Z,7.60
2018-12-31T03:56:04.265Z,7.61
2018-12-31T03:58:32.247Z,7.63
2018-12-31T04:01:00.888Z,7.65
2018-12-31T04:03:28.922Z,7.67
2018-12-31T04:05:57.975Z,7.68
2018-12-31T04:08:25.976Z,7.72
2018-12-31T04:10:54.097Z,7.75
2018-12-31T04:13:22.096Z,7.77
2018-12-31T04:15:50.163Z,7.78
2018-12-31T04:18:18.145Z,7.79
2018-12-31T04:20:46.141Z,7.78
2018-12-31T04:23:14.132Z,7.75
2018-12-31T04:25:42.146Z,7.77
2018-12-31T04:28:10.180Z,7.78
2018-12-31T04:30:38.214Z,7.79
2018-12-31T04:33:06.221Z,7.78
2018-12-31T04:35:34.264Z,7.77
2018-12-31T04:38:02.274Z,7.75
2018-12-31T04:40:30.327Z,7.74
2018-12-31T04:42:58.323Z,7.75
2018-12-31T04:45:27.747Z,7.76
2018-12-31T04:47:55.794Z,7.79
2018-12-31T04:50:24.196Z,7.82
2018-12-31T04:52:52.171Z,7.85
2018-12-31T04:55:20.557Z,7.88
2018-12-31T04:57:48.922Z,7.89
2018-12-31T05:00:16.937Z,7.90
2018-12-31T05:02:45.026Z,7.89
2018-12-31T05:05:13.065Z,7.90
2018-12-31T05:07:41.091Z,7.90
2018-12-31T05:10:09.108Z,7.89
2018-12-31T05:12:37.151Z,7.90
2018-12-31T05:15:05.331Z,7.92
2018-12-31T05:17:33.391Z,7.96
2018-12-31T05:20:01.389Z,7.98
2018-12-31T05:22:30.008Z,8.01
2018-12-31T05:24:57.993Z,7.99
2018-12-31T05:27:26.133Z,7.97
2018-12-31T05:29:54.502Z,7.95
2018-12-31T05:32:22.781Z,7.94
2018-12-31T05:34:53.963Z,7.96
2018-12-31T05:37:21.962Z,7.97
2018-12-31T05:39:49.951Z,7.98
2018-12-31T05:42:17.979Z,7.99
2018-12-31T05:44:45.961Z,8.01
2018-12-31T05:47:13.982Z,8.02
2018-12-31T05:49:41.990Z,8.01
2018-12-31T05:52:10.000Z,8.00
2018-12-31T05:54:37.984Z,7.99
2018-12-31T05:57:06.008Z,7.98
2018-12-31T05:59:46.857Z,8.00
2018-12-31T06:02:14.881Z,8.03
2018-12-31T06:04:42.873Z,8.04
2018-12-31T06:07:11.166Z,8.04
2018-12-31T06:09:39.491Z,8.04
2018-12-31T06:12:07.547Z,8.04
2018-12-31T06:14:35.854Z,8.04
2018-12-31T06:17:05.191Z,8.02
2018-12-31T06:19:33.300Z,8.00
2018-12-31T06:22:01.410Z,8.00
2018-12-31T06:24:29.435Z,8.00
2018-12-31T06:26:57.461Z,7.99
2018-12-31T06:29:25.459Z,7.99
2018-12-31T06:31:53.489Z,7.99
2018-12-31T06:34:21.506Z,7.98
2018-12-31T06:36:49.594Z,7.99
2018-12-31T06:39:18.013Z,8.00
2018-12-31T06:41:46.040Z,8.01
2018-12-31T06:44:14.399Z,8.02
2018-12-31T06:46:42.548Z,8.02
2018-12-31T06:49:10.565Z,8.03
2018-12-31T06:51:38.890Z,8.01
2018-12-31T06:54:06.912Z,8.02
2018-12-31T06:56:35.016Z,8.01
2018-12-31T06:59:03.021Z,7.99
2018-12-31T07:01:31.093Z,7.98
2018-12-31T07:03:59.423Z,7.99
2018-12-31T07:06:27.879Z,8.00
2018-12-31T07:08:55.917Z,8.00
2018-12-31T07:11:24.315Z,8.02
2018-12-31T07:13:52.357Z,8.03
2018-12-31T07:16:20.547Z,8.04
2018-12-31T07:18:48.547Z,8.04
2018-12-31T07:21:16.584Z,8.04
2018-12-31T07:23:44.612Z,8.07
2018-12-31T07:26:12.585Z,8.08
2018-12-31T07:28:40.613Z,8.08
2018-12-31T07:31:08.664Z,8.08
2018-12-31T07:33:37.477Z,8.07
2018-12-31T07:36:05.596Z,8.07
2018-12-31T07:38:33.919Z,8.06
2018-12-31T07:41:02.282Z,8.07
2018-12-31T07:43:30.382Z,8.07
2018-12-31T07:45:58.443Z,8.10
2018-12-31T07:48:27.739Z,8.10
2018-12-31T07:50:55.838Z,8.10
2018-12-31T07:53:24.667Z,8.10
2018-12-31T07:55:52.686Z,8.09
2018-12-31T07:58:20.738Z,8.06
2018-12-31T08:00:48.776Z,8.04
2018-12-31T08:03:16.934Z,8.05
2018-12-31T08:05:44.967Z,8.06
2018-12-31T08:08:13.393Z,8.09
2018-12-31T08:10:41.489Z,8.11
2018-12-31T08:13:09.465Z,8.14
2018-12-31T08:15:37.542Z,8.17
2018-12-31T08:18:05.563Z,8.17
2018-12-31T08:20:34.533Z,8.19
2018-12-31T08:23:02.702Z,8.21
2018-12-31T08:25:30.679Z,8.21
2018-12-31T08:27:58.820Z,8.21
2018-12-31T08:30:27.592Z,8.21
2018-12-31T08:32:55.578Z,8.20
2018-12-31T08:35:23.610Z,8.21
2018-12-31T08:37:51.646Z,8.25
2018-12-31T08:40:19.930Z,8.26
2018-12-31T08:42:47.955Z,8.23
2018-12-31T08:45:15.945Z,8.23
2018-12-31T08:47:43.957Z,8.21
2018-12-31T08:50:12.019Z,8.21
2018-12-31T08:52:40.063Z,8.22
2018-12-31T08:55:08.085Z,8.23
2018-12-31T08:57:36.414Z,8.24
2018-12-31T09:00:05.032Z,8.25
2018-12-31T09:02:33.315Z,8.27
2018-12-31T09:05:01.315Z,8.26
2018-12-31T09:07:29.314Z,8.26
2018-12-31T09:09:57.307Z,8.26
2018-12-31T09:12:25.825Z,8.25
2018-12-31T09:14:53.866Z,8.27
2018-12-31T09:17:22.189Z,8.29
2018-12-31T09:19:50.273Z,8.29
2018-12-31T09:22:18.250Z,8.27
2018-12-31T09:24:46.331Z,8.27
2018-12-31T09:27:14.562Z,8.27
2018-12-31T09:29:42.568Z,8.29
2018-12-31T09:32:10.609Z,8.30
2018-12-31T09:34:39.218Z,8.32
2018-12-31T09:37:07.593Z,8.31
2018-12-31T09:39:35.645Z,8.33
2018-12-31T09:42:03.608Z,8.36
2018-12-31T09:44:31.652Z,8.38
2018-12-31T09:46:59.617Z,8.41
2018-12-31T09:49:27.889Z,8.40
2018-12-31T09:51:56.342Z,8.40
2018-12-31T09:54:24.612Z,8.40
2018-12-31T09:56:52.626Z,8.42
2018-12-31T09:59:20.968Z,8.45
2018-12-31T10:01:49.008Z,8.48
2018-12-31T10:04:17.108Z,8.49
2018-12-31T10:06:45.138Z,8.51
2018-12-31T10:09:13.537Z,8.54
2018-12-31T10:11:41.628Z,8.58
2018-12-31T10:14:09.712Z,8.59
2018-12-31T10:16:38.050Z,8.60
2018-12-31T10:19:06.132Z,8.60
2018-12-31T10:21:40.755Z,8.61
2018-12-31T10:24:04.061Z,8.64
2018-12-31T10:26:32.039Z,8.68
2018-12-31T10:29:00.092Z,8.71
2018-12-31T10:31:28.337Z,8.71
2018-12-31T10:33:56.378Z,8.72
2018-12-31T10:36:24.375Z,8.76
2018-12-31T10:38:52.447Z,8.78
2018-12-31T10:41:20.584Z,8.84
2018-12-31T10:43:48.671Z,8.90
2018-12-31T10:46:16.736Z,8.95
2018-12-31T10:48:44.757Z,8.98
2018-12-31T10:51:12.769Z,9.05
2018-12-31T10:53:40.799Z,9.09
2018-12-31T10:56:08.823Z,9.14
2018-12-31T10:58:36.800Z,9.19
2018-12-31T11:01:04.819Z,9.20
2018-12-31T11:03:33.468Z,9.20
2018-12-31T11:06:01.553Z,9.22
2018-12-31T11:08:29.929Z,9.24
2018-12-31T11:10:57.948Z,9.26
2018-12-31T11:13:25.989Z,9.29
2018-12-31T11:15:54.109Z,9.31
2018-12-31T11:18:22.093Z,9.35
2018-12-31T11:20:50.124Z,9.39
2018-12-31T11:23:18.356Z,9.39
2018-12-31T11:25:46.325Z,9.39
2018-12-31T11:28:14.723Z,9.38
2018-12-31T11:30:42.951Z,9.38
2018-12-31T11:33:11.004Z,9.40
2018-12-31T11:35:39.512Z,9.43
2018-12-31T11:38:07.479Z,9.47
2018-12-31T11:40:35.869Z,9.48
2018-12-31T11:43:04.137Z,9.50
2018-12-31T11:45:32.283Z,9.53
2018-12-31T11:48:00.722Z,9.54
2018-12-31T11:50:29.375Z,9.56
2018-12-31T11:52:57.810Z,9.58
2018-12-31T11:55:26.795Z,9.60
2018-12-31T11:57:55.341Z,9.61
2018-12-31T12:00:23.456Z,9.61
2018-12-31T12:02:51.562Z,9.63
2018-12-31T12:05:19.647Z,9.62
2018-12-31T12:07:47.703Z,9.62
2018-12-31T12:10:16.053Z,9.63
2018-12-31T12:12:44.106Z,9.64
2018-12-31T12:15:12.232Z,9.65
2018-12-31T12:17:40.220Z,9.67
2018-12-31T12:20:08.730Z,9.71
2018-12-31T12:22:36.724Z,9.72
2018-12-31T12:25:04.955Z,9.72
2018-12-31T12:27:33.066Z,9.75
2018-12-31T12:30:01.729Z,9.79
2018-12-31T12:32:30.239Z,9.82
2018-12-31T12:34:58.719Z,9.87
2018-12-31T12:37:26.885Z,9.92
2018-12-31T12:39:55.542Z,9.94
2018-12-31T12:42:23.568Z,9.99
2018-12-31T12:44:51.642Z,10.02
2018-12-31T12:47:19.995Z,10.04
2018-12-31T12:49:47.993Z,10.05
2018-12-31T12:52:16.117Z,10.06
2018-12-31T12:54:45.154Z,10.09
2018-12-31T12:57:13.299Z,10.10
2018-12-31T12:59:41.877Z,10.12
2018-12-31T13:02:09.968Z,10.13
2018-12-31T13:04:37.978Z,10.14
2018-12-31T13:07:06.135Z,10.17
2018-12-31T13:09:34.562Z,10.17
2018-12-31T13:12:02.678Z,10.17
2018-12-31T13:14:31.635Z,10.17
2018-12-31T13:16:59.762Z,10.17
2018-12-31T13:19:28.009Z,10.18
2018-12-31T13:21:56.462Z,10.17
2018-12-31T13:24:24.538Z,10.17
2018-12-31T13:26:52.661Z,10.17
2018-12-31T13:29:20.740Z,10.16
2018-12-31T13:31:48.901Z,10.15
2018-12-31T13:34:16.935Z,10.15
2018-12-31T13:36:44.959Z,10.16
2018-12-31T13:39:13.750Z,10.16
2018-12-31T13:41:41.818Z,10.16
2018-12-31T13:44:10.206Z,10.15
2018-12-31T13:46:40.335Z,10.16
2018-12-31T13:49:08.362Z,10.16
2018-12-31T13:51:36.800Z,10.19
2018-12-31T13:54:04.777Z,10.23
2018-12-31T13:56:33.186Z,10.25
2018-12-31T13:59:01.228Z,10.30
2018-12-31T14:01:29.295Z,10.33
2018-12-31T14:03:57.349Z,10.38
2018-12-31T14:06:25.381Z,10.41
2018-12-31T14:08:53.671Z,10.46
2018-12-31T14:11:21.773Z,10.48
2018-12-31T14:13:50.037Z,10.51
2018-12-31T14:16:18.467Z,10.52
2018-12-31T14:18:46.532Z,10.51
2018-12-31T14:21:14.706Z,10.49
2018-12-31T14:23:42.874Z,10.47
2018-12-31T14:26:10.923Z,10.44
2018-12-31T14:28:38.958Z,10.42
2018-12-31T14:31:07.297Z,10.42
2018-12-31T14:33:35.342Z,10.44
2018-12-31T14:36:03.632Z,10.46
2018-12-31T14:38:32.522Z,10.47
2018-12-31T14:41:00.907Z,10.47
2018-12-31T14:43:29.293Z,10.51
2018-12-31T14:45:57.286Z,10.53
2018-12-31T14:48:25.331Z,10.56
2018-12-31T14:50:53.392Z,10.59
2018-12-31T14:53:21.593Z,10.59
2018-12-31T14:55:49.810Z,10.59
2018-12-31T14:58:17.852Z,10.59
2018-12-31T15:00:45.899Z,10.57
2018-12-31T15:03:14.021Z,10.55
2018-12-31T15:05:42.030Z,10.54
2018-12-31T15:08:10.542Z,10.53
2018-12-31T15:10:38.638Z,10.53
2018-12-31T15:13:06.840Z,10.52
2018-12-31T15:15:35.215Z,10.54
2018-12-31T15:18:03.413Z,10.55
2018-12-31T15:20:32.172Z,10.56
2018-12-31T15:23:00.726Z,10.59
2018-12-31T15:25:28.758Z,10.59
2018-12-31T15:27:57.763Z,10.61
2018-12-31T15:30:25.777Z,10.63
2018-12-31T15:32:53.826Z,10.62
2018-12-31T15:35:21.852Z,10.64
2018-12-31T15:37:49.883Z,10.61
2018-12-31T15:40:17.889Z,10.62
2018-12-31T15:42:46.050Z,10.61
2018-12-31T15:45:14.096Z,10.63
2018-12-31T15:47:43.927Z,10.61
2018-12-31T15:50:12.006Z,10.63
2018-12-31T15:52:40.039Z,10.64
2018-12-31T15:55:08.324Z,10.65
2018-12-31T15:57:36.371Z,10.64
2018-12-31T16:00:07.257Z,10.64
2018-12-31T16:02:35.458Z,10.64
2018-12-31T16:05:03.631Z,10.63
2018-12-31T16:07:32.437Z,10.63
2018-12-31T16:10:00.702Z,10.63
2018-12-31T16:12:28.779Z,10.62
2018-12-31T16:14:57.309Z,10.62
2018-12-31T16:17:25.665Z,10.61
2018-12-31T16:19:53.831Z,10.61
2018-12-31T16:22:21.919Z,10.60
2018-12-31T16:24:49.988Z,10.61
2018-12-31T16:27:18.002Z,10.60
2018-12-31T16:29:46.126Z,10.59
2018-12-31T16:32:14.099Z,10.58
2018-12-31T16:34:42.147Z,10.57
2018-12-31T16:37:10.408Z,10.56
2018-12-31T16:39:38.444Z,10.53
2018-12-31T16:42:06.751Z,10.52
2018-12-31T16:44:35.068Z,10.52
2018-12-31T16:47:03.057Z,10.48
2018-12-31T16:49:31.159Z,10.45
2018-12-31T16:52:02.801Z,10.39
2018-12-31T16:54:29.546Z,10.36
2018-12-31T16:56:57.534Z,10.35
2018-12-31T16:59:25.592Z,10.34
2018-12-31T17:01:53.802Z,10.35
2018-12-31T17:04:21.950Z,10.36
2018-12-31T17:06:50.207Z,10.37
2018-12-31T17:09:18.285Z,10.37
2018-12-31T17:11:46.351Z,10.39
2018-12-31T17:14:14.398Z,10.41
2018-12-31T17:16:42.480Z,10.39
2018-12-31T17:19:10.943Z,10.39
2018-12-31T17:21:38.918Z,10.41
2018-12-31T17:24:07.487Z,10.39
2018-12-31T17:26:35.601Z,10.42
2018-12-31T17:29:03.651Z,10.42
2018-12-31T17:31:31.638Z,10.42
2018-12-31T17:34:03.388Z,10.42
2018-12-31T17:36:32.572Z,10.42
2018-12-31T17:39:00.658Z,10.41
2018-12-31T17:41:29.488Z,10.42
2018-12-31T17:43:57.832Z,10.41
2018-12-31T17:46:26.085Z,10.41
2018-12-31T17:48:54.122Z,10.42
2018-12-31T17:51:22.171Z,10.41
2018-12-31T17:53:50.532Z,10.41
2018-12-31T17:56:18.525Z,10.40
2018-12-31T17:58:46.831Z,10.40
2018-12-31T18:01:15.136Z,10.39
2018-12-31T18:03:43.206Z,10.38
2018-12-31T18:06:11.198Z,10.37
2018-12-31T18:08:39.238Z,10.35
2018-12-31T18:11:07.209Z,10.33
2018-12-31T18:13:35.213Z,10.33
2018-12-31T18:16:03.530Z,10.32
2018-12-31T18:18:32.160Z,10.32
2018-12-31T18:21:00.173Z,10.33
2018-12-31T18:23:28.373Z,10.32
2018-12-31T18:25:56.591Z,10.28
2018-12-31T18:28:25.187Z,10.25
2018-12-31T18:30:53.492Z,10.22
2018-12-31T18:33:21.478Z,10.19
2018-12-31T18:35:49.627Z,10.16
2018-12-31T18:38:17.723Z,10.16
2018-12-31T18:40:45.833Z,10.15
2018-12-31T18:43:13.807Z,10.14
2018-12-31T18:45:41.918Z,10.12
2018-12-31T18:48:10.025Z,10.10
2018-12-31T18:50:38.096Z,10.07
2018-12-31T18:53:06.186Z,10.03
2018-12-31T18:55:34.429Z,9.99
2018-12-31T18:58:02.991Z,9.95
2018-12-31T19:00:31.357Z,9.94
2018-12-31T19:02:59.887Z,9.95
2018-12-31T19:05:27.914Z,9.95
2018-12-31T19:07:56.054Z,9.96
2018-12-31T19:10:24.146Z,9.96
2018-12-31T19:12:52.258Z,9.96
2018-12-31T19:15:20.308Z,9.97
2018-12-31T19:17:48.779Z,9.99
2018-12-31T19:20:17.884Z,10.02
2018-12-31T19:22:46.017Z,10.04
2018-12-31T19:25:14.455Z,10.06
2018-12-31T19:27:43.128Z,10.07
2018-12-31T19:30:11.165Z,10.06
2018-12-31T19:32:39.213Z,10.08
2018-12-31T19:35:07.594Z,10.09
2018-12-31T19:37:35.575Z,10.10
2018-12-31T19:40:03.845Z,10.12
2018-12-31T19:42:33.674Z,10.13
2018-12-31T19:45:01.903Z,10.12
2018-12-31T19:47:30.245Z,10.14
2018-12-31T19:49:58.258Z,10.15
2018-12-31T19:52:26.476Z,10.13
2018-12-31T19:54:58.538Z,10.15
2018-12-31T19:57:24.697Z,10.14
2018-12-31T19:59:53.107Z,10.15
2018-12-31T20:02:21.482Z,10.15
2018-12-31T20:04:49.544Z,10.15
2018-12-31T20:07:17.516Z,10.12
2018-12-31T20:09:45.537Z,10.12
2018-12-31T20:12:13.690Z,10.12
2018-12-31T20:14:41.747Z,10.12
2018-12-31T20:17:10.234Z,10.10
2018-12-31T20:19:38.278Z,10.10
2018-12-31T20:22:06.815Z,10.09
2018-12-31T20:24:35.595Z,10.09
2018-12-31T20:27:03.613Z,10.09
2018-12-31T20:29:32.186Z,10.09
2018-12-31T20:32:00.259Z,10.10
2018-12-31T20:34:28.388Z,10.11
2018-12-31T20:36:56.461Z,10.11
2018-12-31T20:39:24.511Z,10.12
2018-12-31T20:41:52.563Z,10.10
2018-12-31T20:44:21.513Z,10.07
2018-12-31T20:46:49.562Z,10.02
2018-12-31T20:49:17.578Z,9.99
2018-12-31T20:51:45.588Z,9.98
2018-12-31T20:54:13.682Z,9.96
2018-12-31T20:56:41.720Z,9.95
2018-12-31T20:59:10.226Z,9.95
2018-12-31T21:01:41.250Z,9.94
2018-12-31T21:04:09.266Z,9.93
2018-12-31T21:06:37.564Z,9.92
2018-12-31T21:09:07.308Z,9.93
2018-12-31T21:11:35.721Z,9.94
2018-12-31T21:14:03.683Z,9.96
2018-12-31T21:16:31.720Z,9.97
2018-12-31T21:18:59.728Z,9.99
2018-12-31T21:21:27.830Z,10.01
2018-12-31T21:23:55.808Z,10.03
2018-12-31T21:26:24.469Z,10.04
2018-12-31T21:28:52.471Z,10.05
2018-12-31T21:31:20.605Z,10.05
2018-12-31T21:33:48.771Z,10.05
2018-12-31T21:36:17.109Z,10.02
2018-12-31T21:38:45.182Z,10.00
2018-12-31T21:41:13.288Z,9.98
2018-12-31T21:43:41.741Z,9.97
2018-12-31T21:46:09.732Z,9.95
2018-12-31T21:48:37.803Z,9.94
2018-12-31T21:51:05.882Z,9.93
2018-12-31T21:53:34.344Z,9.91
2018-12-31T21:56:02.491Z,9.89
2018-12-31T21:58:30.958Z,9.87
2018-12-31T22:00:58.992Z,9.84
2018-12-31T22:03:27.300Z,9.81
2018-12-31T22:05:55.399Z,9.77
2018-12-31T22:08:23.451Z,9.72
2018-12-31T22:10:51.712Z,9.69
2018-12-31T22:13:19.800Z,9.63
2018-12-31T22:15:47.779Z,9.60
2018-12-31T22:18:15.875Z,9.59
2018-12-31T22:20:44.309Z,9.58
2018-12-31T22:23:12.334Z,9.57
2018-12-31T22:25:40.315Z,9.55
2018-12-31T22:28:08.384Z,9.54
2018-12-31T22:30:37.736Z,9.53
2018-12-31T22:33:05.819Z,9.51
2018-12-31T22:35:33.856Z,9.52
2018-12-31T22:38:01.942Z,9.51
2018-12-31T22:40:29.941Z,9.51
2018-12-31T22:42:58.056Z,9.51
2018-12-31T22:45:26.235Z,9.52
2018-12-31T22:47:54.524Z,9.54
2018-12-31T22:50:22.537Z,9.54
2018-12-31T22:52:50.541Z,9.55
2018-12-31T22:55:18.669Z,9.55
2018-12-31T22:57:47.003Z,9.55
2018-12-31T23:00:15.166Z,9.56
2018-12-31T23:02:43.333Z,9.57
2018-12-31T23:05:13.237Z,9.60
2018-12-31T23:07:42.046Z,9.63
2018-12-31T23:10:10.106Z,9.66
2018-12-31T23:12:38.457Z,9.68
2018-12-31T23:15:15.349Z,9.70
2018-12-31T23:17:43.770Z,9.72
2018-12-31T23:20:12.139Z,9.73
2018-12-31T23:22:40.546Z,9.74
2018-12-31T23:25:08.669Z,9.75
2018-12-31T23:27:36.708Z,9.77
2018-12-31T23:30:06.624Z,9.77
2018-12-31T23:32:34.708Z,9.78
2018-12-31T23:35:03.023Z,9.77
2018-12-31T23:37:31.015Z,9.78
2018-12-31T23:39:59.607Z,9.77
2018-12-31T23:42:27.681Z,9.79
2018-12-31T23:44:55.787Z,9.79
2018-12-31T23:47:24.140Z,9.79
2018-12-31T23:49:52.283Z,9.80
2018-12-31T23:52:20.294Z,9.81
2018-12-31T23:54:49.151Z,9.81
2018-12-31T23:57:17.197Z,9.80
2018-12-31T23:59:45.286Z,9.79
